»·PEaware :: AAL250 KRDU-KDFW

AAL250 :: KRDU-KDFW

FLIGHT INFORMATION

Flight Status: Arrived
Operator:
American Airlines
More flights by this operator :: More flights under this callsign
Pilot: Anonymous 14085 (14085)
Aircraft: AIRBUS A319
(A319)
More flights by this aircraft type
Origin: KRDU Raleigh-Durham Intl
United States
Destination: KDFW Dallas-Ft Worth Intl
United States
More flights between these airports :: More routes between these airports
Route: SHPRD3 SHPRD VXV MEM FEWWW SEEVR4
File this flight plan on PilotEdge
Remarks: RMK / SIMBRIEF
Altitude:
(Current/Filed)
38,000ft
Speed:
(Current/Filed)
452kts
Departed: 07-Oct-20 07:51 PM
Arrived: 07-Oct-20 09:56 PM
Distance/Time
Traveled:
920nm/2:05
Distance/Time
To Go:
Arrived

Flight Plot

Page will automatically refresh every two minutes.

Flight plan parsing failed; only flown route is shown


Map Options




Map Legend


Flown Route
Filed Route
Departure Airport
Arrival Airport
Navaid (VOR, NDB)
Fix

Horizontal Profiles

Position Reports

Time Latitude Longitude Heading Altitude Ground
Speed
07-Oct-20 19:38 35.879562 -78.791621 141 393ft 0kts
07-Oct-20 19:39 35.879562 -78.791621 141 393ft 0kts
07-Oct-20 19:40 35.879562 -78.791621 141 393ft 0kts
07-Oct-20 19:41 35.879809 -78.791899 123 392ft 2kts
07-Oct-20 19:42 35.879914 -78.792326 91 390ft 0kts
07-Oct-20 19:43 35.879914 -78.792325 91 390ft 0kts
07-Oct-20 19:44 35.880040 -78.792254 29 390ft 4kts
07-Oct-20 19:45 35.883965 -78.788294 44 398ft 19kts
07-Oct-20 19:46 35.887833 -78.783568 44 397ft 21kts
07-Oct-20 19:47 35.891943 -78.778480 45 401ft 19kts
07-Oct-20 19:48 35.893392 -78.778572 226 401ft 0kts
07-Oct-20 19:49 35.893368 -78.778598 221 401ft 1kts
07-Oct-20 19:50 35.877738 -78.798468 233 937ft 161kts
07-Oct-20 19:51 35.866264 -78.851479 266 3517ft 187kts
07-Oct-20 19:52 35.861567 -78.928021 265 5621ft 257kts
07-Oct-20 19:53 35.855469 -79.016487 266 9237ft 266kts
07-Oct-20 19:54 35.848775 -79.112824 267 11470ft 314kts
07-Oct-20 19:55 35.840248 -79.233418 267 12771ft 385kts
07-Oct-20 19:56 35.830410 -79.366929 267 15569ft 398kts
07-Oct-20 19:57 35.819990 -79.504162 267 18048ft 408kts
07-Oct-20 19:58 35.799263 -79.643653 261 20199ft 420kts
07-Oct-20 19:59 35.774957 -79.786265 261 22102ft 430kts
07-Oct-20 20:00 35.750037 -79.931249 261 23795ft 438kts
07-Oct-20 20:01 35.724552 -80.078222 261 25535ft 436kts
07-Oct-20 20:02 35.699280 -80.222895 261 27358ft 429kts
07-Oct-20 20:03 35.674299 -80.364886 261 28991ft 423kts
07-Oct-20 20:04 35.659962 -80.505940 272 30476ft 412kts
07-Oct-20 20:05 35.669096 -80.644938 277 31768ft 405kts
07-Oct-20 20:06 35.680720 -80.781562 277 33013ft 400kts
07-Oct-20 20:07 35.692139 -80.916916 277 34117ft 395kts
07-Oct-20 20:08 35.703225 -81.049943 277 35214ft 388kts
07-Oct-20 20:09 35.713986 -81.180668 277 36102ft 382kts
07-Oct-20 20:10 35.724478 -81.310110 277 36667ft 381kts
07-Oct-20 20:11 35.734877 -81.440082 277 37136ft 382kts
07-Oct-20 20:12 35.745136 -81.570067 277 37538ft 382kts
07-Oct-20 20:13 35.755248 -81.699942 277 37931ft 382kts
07-Oct-20 20:14 35.765246 -81.830295 276 38156ft 382kts
07-Oct-20 20:15 35.775110 -81.960491 276 38169ft 382kts
07-Oct-20 20:16 35.784782 -82.090208 276 38166ft 382kts
07-Oct-20 20:17 35.794373 -82.220608 276 38173ft 382kts
07-Oct-20 20:18 35.803786 -82.350600 276 38198ft 382kts
07-Oct-20 20:19 35.813096 -82.481017 277 38212ft 381kts
07-Oct-20 20:20 35.822235 -82.610996 277 38213ft 382kts
07-Oct-20 20:21 35.831239 -82.741543 276 38208ft 383kts
07-Oct-20 20:22 35.840132 -82.871960 276 38200ft 381kts
07-Oct-20 20:23 35.848831 -83.001705 275 38197ft 380kts
07-Oct-20 20:24 35.857359 -83.131349 275 38196ft 379kts
07-Oct-20 20:25 35.865747 -83.260787 275 38191ft 379kts
07-Oct-20 20:26 35.873999 -83.390364 275 38188ft 379kts
07-Oct-20 20:27 35.882127 -83.519883 275 38188ft 379kts
07-Oct-20 20:28 35.890117 -83.649488 275 38188ft 379kts
07-Oct-20 20:29 35.897941 -83.779180 275 38188ft 379kts
07-Oct-20 20:30 35.900478 -83.909187 268 38186ft 383kts
07-Oct-20 20:31 35.886931 -84.041125 264 38183ft 392kts
07-Oct-20 20:32 35.870853 -84.174571 264 38180ft 396kts
07-Oct-20 20:33 35.854426 -84.308699 264 38179ft 396kts
07-Oct-20 20:34 35.837828 -84.442896 264 38189ft 396kts
07-Oct-20 20:35 35.821137 -84.576671 264 38201ft 396kts
07-Oct-20 20:36 35.804150 -84.711534 264 38204ft 396kts
07-Oct-20 20:37 35.787021 -84.846551 264 38208ft 396kts
07-Oct-20 20:38 35.769525 -84.982977 264 38217ft 396kts
07-Oct-20 20:39 35.751934 -85.119100 263 38222ft 397kts
07-Oct-20 20:40 35.734226 -85.254538 263 38222ft 397kts
07-Oct-20 20:41 35.716490 -85.388686 263 38213ft 397kts
07-Oct-20 20:42 35.698672 -85.522499 263 38201ft 397kts
07-Oct-20 20:43 35.680666 -85.656566 262 38199ft 397kts
07-Oct-20 20:44 35.662574 -85.790521 262 38197ft 398kts
07-Oct-20 20:45 35.644299 -85.924498 262 38197ft 397kts
07-Oct-20 20:46 35.625880 -86.058180 262 38195ft 397kts
07-Oct-20 20:47 35.607275 -86.192091 262 38192ft 398kts
07-Oct-20 20:48 35.588533 -86.325869 262 38190ft 398kts
07-Oct-20 20:49 35.569697 -86.459200 262 38188ft 398kts
07-Oct-20 20:50 35.550631 -86.593060 262 38188ft 398kts
07-Oct-20 20:51 35.531461 -86.726722 262 38188ft 398kts
07-Oct-20 20:52 35.512190 -86.860069 262 38188ft 398kts
07-Oct-20 20:53 35.492673 -86.994127 261 38184ft 399kts
07-Oct-20 20:54 35.472984 -87.128072 260 38175ft 400kts
07-Oct-20 20:55 35.453019 -87.262365 260 38169ft 400kts
07-Oct-20 20:56 35.432935 -87.396615 260 38169ft 400kts
07-Oct-20 20:57 35.412713 -87.530810 260 38169ft 400kts
07-Oct-20 20:58 35.392393 -87.664623 260 38172ft 401kts
07-Oct-20 20:59 35.371930 -87.798730 260 38169ft 401kts
07-Oct-20 21:00 35.351274 -87.932818 260 38169ft 400kts
07-Oct-20 21:02 35.330431 -88.066907 260 38169ft 400kts
07-Oct-20 21:03 35.246254 -88.598530 260 38176ft 400kts
07-Oct-20 21:04 35.159343 -89.133230 258 38176ft 399kts
07-Oct-20 21:05 35.070008 -89.664147 257 38172ft 399kts
07-Oct-20 21:06 34.979651 -90.172541 256 38164ft 402kts
07-Oct-20 21:07 34.971419 -90.214172 256 38162ft 404kts
07-Oct-20 21:08 34.945155 -90.348064 256 38162ft 408kts
07-Oct-20 21:09 34.918748 -90.483044 256 38167ft 411kts
07-Oct-20 21:10 34.891906 -90.619060 256 38171ft 413kts
07-Oct-20 21:11 34.864643 -90.755393 255 38178ft 415kts
07-Oct-20 21:12 34.837538 -90.891477 255 38178ft 415kts
07-Oct-20 21:13 34.810269 -91.027814 255 38178ft 414kts
07-Oct-20 21:14 34.782995 -91.163429 254 38174ft 412kts
07-Oct-20 21:15 34.755598 -91.298576 254 38169ft 411kts
07-Oct-20 21:16 34.728102 -91.433433 254 38168ft 411kts
07-Oct-20 21:17 34.700496 -91.568016 254 38169ft 412kts
07-Oct-20 21:17 34.677333 -91.680405 253 38169ft 412kts
07-Oct-20 21:18 34.649478 -91.815259 253 38167ft 412kts
07-Oct-20 21:20 34.616704 -91.972429 253 38165ft 411kts
07-Oct-20 21:20 34.593174 -92.084577 253 38164ft 411kts
07-Oct-20 21:21 34.564773 -92.219136 253 38161ft 411kts
07-Oct-20 21:23 34.530919 -92.378510 254 38163ft 411kts
07-Oct-20 21:23 34.506596 -92.492413 253 38167ft 411kts
07-Oct-20 21:25 34.472666 -92.650318 253 38167ft 411kts
07-Oct-20 21:25 34.448495 -92.762508 253 38167ft 411kts
07-Oct-20 21:26 34.419058 -92.898192 253 38167ft 411kts
07-Oct-20 21:27 34.371951 -93.114073 251 38168ft 409kts
07-Oct-20 21:28 34.312426 -93.382403 251 38167ft 409kts
07-Oct-20 21:29 34.253011 -93.647989 251 38168ft 409kts
07-Oct-20 21:30 34.192578 -93.912501 248 38179ft 408kts
07-Oct-20 21:31 34.111939 -94.175444 246 38172ft 407kts
07-Oct-20 21:32 33.950655 -94.694831 246 38151ft 407kts
07-Oct-20 21:33 33.844705 -95.030899 244 35779ft 389kts
07-Oct-20 21:34 33.766864 -95.275300 244 31727ft 400kts
07-Oct-20 21:35 33.684286 -95.531719 244 26105ft 397kts
07-Oct-20 21:36 33.606890 -95.769622 243 21839ft 371kts
07-Oct-20 21:37 33.534528 -95.990469 244 17992ft 354kts
07-Oct-20 21:38 33.498294 -96.100316 244 16180ft 345kts
07-Oct-20 21:39 33.462475 -96.208562 245 14359ft 338kts
07-Oct-20 21:40 33.414743 -96.301693 226 13259ft 315kts
07-Oct-20 21:41 33.356647 -96.381071 227 11687ft 305kts
07-Oct-20 21:42 33.314255 -96.464650 250 10722ft 286kts
07-Oct-20 21:43 33.289456 -96.556619 255 9434ft 279kts
07-Oct-20 21:44 33.283115 -96.649352 266 8349ft 271kts
07-Oct-20 21:45 33.279014 -96.740236 266 7167ft 264kts
07-Oct-20 21:46 33.274847 -96.829178 266 6047ft 257kts
07-Oct-20 21:47 33.262287 -96.914785 253 5480ft 254kts
07-Oct-20 21:48 33.225898 -96.984978 208 4837ft 244kts
07-Oct-20 21:49 33.164566 -97.018441 198 4335ft 240kts
07-Oct-20 21:50 33.100419 -97.025089 179 3830ft 219kts
07-Oct-20 21:51 33.040027 -97.025382 179 3051ft 218kts
07-Oct-20 21:52 32.981995 -97.025668 179 1940ft 194kts
07-Oct-20 21:53 32.936247 -97.025897 178 999ft 137kts
07-Oct-20 21:54 32.901731 -97.026039 181 615ft 75kts
07-Oct-20 21:55 32.893921 -97.031597 268 614ft 27kts
07-Oct-20 21:56 32.894353 -97.038713 334 614ft 9kts
07-Oct-20 21:57 32.894479 -97.038744 346 614ft 2kts

Navigation Log

Ident Type
Flight plan parsing failed, navigation log unavailable